createdAt,value
2022-09-03T00:00:35.689Z,12.34
2022-09-03T00:03:10.224Z,12.43
2022-09-03T00:05:47.881Z,12.33
2022-09-03T00:08:40.838Z,12.36
2022-09-03T00:11:23.531Z,12.37
2022-09-03T00:13:54.151Z,12.52
2022-09-03T00:16:27.340Z,12.56
2022-09-03T00:18:59.492Z,12.49
2022-09-03T00:21:32.501Z,12.28
2022-09-03T00:24:06.022Z,12.42
2022-09-03T00:26:42.685Z,12.40
2022-09-03T00:29:15.916Z,12.31
2022-09-03T00:31:49.256Z,12.31
2022-09-03T00:34:27.018Z,12.18
2022-09-03T00:36:56.598Z,12.20
2022-09-03T00:39:26.357Z,12.15
2022-09-03T00:42:17.651Z,12.23
2022-09-03T00:45:00.942Z,12.27
2022-09-03T00:47:51.970Z,12.13
2022-09-03T00:50:49.428Z,11.92
2022-09-03T00:53:34.934Z,12.05
2022-09-03T00:56:27.595Z,12.10
2022-09-03T00:59:03.959Z,11.89
2022-09-03T01:02:00.625Z,11.91
2022-09-03T01:04:30.646Z,11.80
2022-09-03T01:07:04.938Z,11.82
2022-09-03T01:09:41.038Z,11.57
2022-09-03T01:12:32.274Z,11.40
2022-09-03T01:15:25.168Z,11.52
2022-09-03T01:18:01.908Z,11.62
2022-09-03T01:20:32.623Z,11.34
2022-09-03T01:23:24.857Z,11.34
2022-09-03T01:26:04.712Z,11.26
2022-09-03T01:28:54.899Z,11.14
2022-09-03T01:31:50.456Z,11.26
2022-09-03T01:34:26.136Z,11.20
2022-09-03T01:37:00.351Z,11.21
2022-09-03T01:39:39.766Z,11.29
2022-09-03T01:42:28.659Z,11.26
2022-09-03T01:45:16.439Z,11.30
2022-09-03T01:48:20.561Z,11.08
2022-09-03T01:51:00.386Z,11.02
2022-09-03T01:54:05.120Z,10.89
2022-09-03T01:57:35.335Z,11.06
2022-09-03T02:00:16.341Z,11.10
2022-09-03T02:02:48.225Z,10.97
2022-09-03T02:05:17.095Z,10.98
2022-09-03T02:07:47.446Z,11.11
2022-09-03T02:10:17.703Z,11.01
2022-09-03T02:12:52.024Z,11.13
2022-09-03T02:15:22.641Z,10.91
2022-09-03T02:17:54.342Z,10.81
2022-09-03T02:20:24.377Z,10.75
2022-09-03T02:22:54.388Z,10.72
2022-09-03T02:25:24.607Z,10.83
2022-09-03T02:27:54.593Z,10.73
2022-09-03T02:30:21.575Z,10.90
2022-09-03T02:32:48.628Z,10.73
2022-09-03T02:35:15.888Z,10.63
2022-09-03T02:37:43.467Z,10.48
2022-09-03T02:40:13.572Z,10.43
2022-09-03T02:42:40.879Z,10.35
2022-09-03T02:45:20.960Z,10.42
2022-09-03T02:47:52.648Z,10.64
2022-09-03T02:50:19.853Z,10.59
2022-09-03T02:52:46.930Z,10.75
2022-09-03T02:55:16.666Z,10.93
2022-09-03T02:57:47.282Z,10.94
2022-09-03T03:00:15.024Z,11.04
2022-09-03T03:02:43.295Z,11.08
2022-09-03T03:05:18.686Z,10.97
2022-09-03T03:07:45.844Z,10.78
2022-09-03T03:10:12.979Z,10.93
2022-09-03T03:12:40.144Z,10.95
2022-09-03T03:15:07.525Z,10.84
2022-09-03T03:17:34.489Z,10.84
2022-09-03T03:20:01.548Z,10.77
2022-09-03T03:22:28.685Z,10.73
2022-09-03T03:24:57.745Z,10.70
2022-09-03T03:27:24.877Z,10.81
2022-09-03T03:29:52.382Z,10.90
2022-09-03T03:32:19.364Z,10.72
2022-09-03T03:34:46.355Z,10.56
2022-09-03T03:37:15.763Z,10.68
2022-09-03T03:39:42.901Z,10.67
2022-09-03T03:42:12.128Z,10.86
2022-09-03T03:44:39.245Z,10.76
2022-09-03T03:47:06.317Z,10.67
2022-09-03T03:49:33.200Z,10.61
2022-09-03T03:52:00.435Z,10.57
2022-09-03T03:54:27.443Z,10.65
2022-09-03T03:56:55.713Z,10.59
2022-09-03T03:59:23.334Z,10.58
2022-09-03T04:01:55.001Z,10.41
2022-09-03T04:04:21.988Z,10.35
2022-09-03T04:06:49.090Z,10.35
2022-09-03T04:09:16.145Z,10.35
2022-09-03T04:11:43.172Z,10.20
2022-09-03T04:14:10.398Z,10.12
2022-09-03T04:16:37.310Z,10.01
2022-09-03T04:19:04.958Z,10.00
2022-09-03T04:21:32.279Z,10.19
2022-09-03T04:23:59.344Z,10.46
2022-09-03T04:26:32.216Z,10.64
2022-09-03T04:29:05.359Z,10.79
2022-09-03T04:31:33.585Z,10.85
2022-09-03T04:34:00.928Z,10.87
2022-09-03T04:36:30.162Z,10.93
2022-09-03T04:38:59.900Z,10.73
2022-09-03T04:41:29.429Z,10.82
2022-09-03T04:43:58.187Z,10.84
2022-09-03T04:46:30.213Z,10.80
2022-09-03T04:48:58.053Z,10.82
2022-09-03T04:51:27.607Z,10.90
2022-09-03T04:53:57.390Z,10.83
2022-09-03T04:56:30.935Z,10.85
2022-09-03T04:59:09.400Z,10.91
2022-09-03T05:01:40.934Z,11.21
2022-09-03T05:04:08.525Z,11.34
2022-09-03T05:06:37.291Z,11.29
2022-09-03T05:09:05.766Z,11.57
2022-09-03T05:11:32.908Z,11.81
2022-09-03T05:14:03.153Z,11.86
2022-09-03T05:16:35.251Z,11.90
2022-09-03T05:19:06.174Z,11.92
2022-09-03T05:21:36.801Z,12.11
2022-09-03T05:24:04.896Z,12.46
2022-09-03T05:26:38.924Z,12.41
2022-09-03T05:29:10.316Z,12.36
2022-09-03T05:31:39.726Z,12.45
2022-09-03T05:34:08.107Z,12.56
2022-09-03T05:36:37.856Z,12.69
2022-09-03T05:39:05.911Z,12.86
2022-09-03T05:41:34.238Z,13.05
2022-09-03T05:44:02.263Z,13.23
2022-09-03T05:46:33.479Z,13.36
2022-09-03T05:49:02.586Z,13.57
2022-09-03T05:51:30.944Z,13.91
2022-09-03T05:53:58.793Z,13.92
2022-09-03T05:56:28.304Z,14.29
2022-09-03T05:58:57.986Z,14.80
2022-09-03T06:01:29.080Z,15.02
2022-09-03T06:03:59.194Z,14.94
2022-09-03T06:06:27.694Z,15.11
2022-09-03T06:08:59.848Z,15.18
2022-09-03T06:11:30.795Z,14.94
2022-09-03T06:14:01.448Z,14.67
2022-09-03T06:16:31.528Z,14.77
2022-09-03T06:19:00.798Z,14.80
2022-09-03T06:21:28.937Z,14.87
2022-09-03T06:23:58.488Z,14.93
2022-09-03T06:26:30.650Z,15.21
2022-09-03T06:28:58.336Z,16.01
2022-09-03T06:31:25.940Z,15.95
2022-09-03T06:33:54.735Z,16.06
2022-09-03T06:36:26.696Z,16.07
2022-09-03T06:38:56.061Z,15.91
2022-09-03T06:41:26.538Z,15.84
2022-09-03T06:44:05.738Z,15.99
2022-09-03T06:46:35.786Z,16.12
2022-09-03T06:49:02.814Z,16.92
2022-09-03T06:51:31.425Z,19.46
2022-09-03T06:54:03.980Z,21.20
2022-09-03T06:56:37.419Z,23.03
2022-09-03T06:59:09.898Z,24.33
2022-09-03T07:01:44.301Z,25.06
2022-09-03T07:04:14.907Z,26.08
2022-09-03T07:06:43.221Z,26.94
2022-09-03T07:09:12.549Z,27.00
2022-09-03T07:11:47.840Z,27.83
2022-09-03T07:14:18.130Z,27.96
2022-09-03T07:16:46.350Z,28.20
2022-09-03T07:19:13.718Z,28.22
2022-09-03T07:21:45.295Z,28.60
2022-09-03T07:24:15.417Z,28.67
2022-09-03T07:26:48.865Z,28.32
2022-09-03T07:29:20.450Z,28.77
2022-09-03T07:31:48.705Z,29.18
2022-09-03T07:34:16.918Z,28.62
2022-09-03T07:36:48.664Z,28.50
2022-09-03T07:39:17.938Z,29.01
2022-09-03T07:41:46.966Z,29.32
2022-09-03T07:44:16.394Z,29.93
2022-09-03T07:46:45.739Z,29.94
2022-09-03T07:49:13.483Z,30.34
2022-09-03T07:51:42.706Z,30.10
2022-09-03T07:54:11.803Z,30.66
2022-09-03T07:56:40.460Z,30.94
2022-09-03T07:59:08.225Z,31.12
2022-09-03T08:01:41.347Z,31.02
2022-09-03T08:04:10.116Z,31.48
2022-09-03T08:06:38.294Z,31.72
2022-09-03T08:09:08.466Z,31.37
2022-09-03T08:11:41.030Z,31.20
2022-09-03T08:14:10.590Z,31.55
2022-09-03T08:16:43.990Z,31.80
2022-09-03T08:19:12.164Z,31.64
2022-09-03T08:21:41.926Z,30.97
2022-09-03T08:24:11.186Z,31.39
2022-09-03T08:26:46.213Z,31.36
2022-09-03T08:29:16.443Z,31.08
2022-09-03T08:31:45.860Z,31.39
2022-09-03T08:34:14.996Z,31.65
2022-09-03T08:36:42.460Z,31.09
2022-09-03T08:39:13.379Z,31.64
2022-09-03T08:41:58.640Z,31.81
2022-09-03T08:44:31.780Z,32.69
2022-09-03T08:47:29.163Z,31.92
2022-09-03T08:50:24.320Z,32.04
2022-09-03T08:52:53.594Z,32.22
2022-09-03T08:55:33.543Z,30.99
2022-09-03T08:58:10.163Z,30.81
2022-09-03T09:00:40.711Z,30.65
2022-09-03T09:03:16.603Z,29.47
2022-09-03T09:06:05.869Z,30.37
2022-09-03T09:09:11.730Z,30.39
2022-09-03T09:11:51.633Z,29.81
2022-09-03T09:14:42.738Z,29.71
2022-09-03T09:17:39.208Z,29.58
2022-09-03T09:20:12.233Z,29.03
2022-09-03T09:22:47.213Z,28.26
2022-09-03T09:25:23.325Z,28.53
2022-09-03T09:28:02.807Z,28.35
2022-09-03T09:30:32.514Z,28.86
2022-09-03T09:33:00.867Z,29.12
2022-09-03T09:35:27.956Z,29.36
2022-09-03T09:38:00.381Z,29.20
2022-09-03T09:40:35.216Z,28.17
2022-09-03T09:43:08.230Z,27.85
2022-09-03T09:45:35.465Z,27.84
2022-09-03T09:48:07.285Z,28.09
2022-09-03T09:50:39.048Z,28.10
2022-09-03T09:53:18.024Z,27.28
2022-09-03T09:55:58.086Z,27.43
2022-09-03T09:58:28.427Z,27.58
2022-09-03T10:01:15.234Z,27.60
2022-09-03T10:03:55.460Z,26.84
2022-09-03T10:06:50.771Z,26.14
2022-09-03T10:09:19.609Z,26.83
2022-09-03T10:11:52.330Z,26.67
2022-09-03T10:14:35.485Z,26.68
2022-09-03T10:17:10.825Z,26.39
2022-09-03T10:20:16.374Z,26.70
2022-09-03T10:22:56.820Z,26.37
2022-09-03T10:25:39.357Z,26.58
2022-09-03T10:28:13.194Z,26.05
2022-09-03T10:30:49.960Z,25.94
2022-09-03T10:33:30.856Z,26.44
2022-09-03T10:36:17.300Z,26.53
2022-09-03T10:38:51.710Z,26.42
2022-09-03T10:41:34.273Z,26.73
2022-09-03T10:44:01.218Z,26.72
2022-09-03T10:46:40.394Z,26.85
2022-09-03T10:49:43.525Z,26.42
2022-09-03T10:52:34.054Z,25.86
2022-09-03T10:55:04.011Z,25.85
2022-09-03T10:57:51.198Z,25.72
2022-09-03T11:00:19.694Z,25.69
2022-09-03T11:02:58.968Z,25.63
2022-09-03T11:05:38.684Z,25.70
2022-09-03T11:08:17.141Z,25.81
2022-09-03T11:10:50.364Z,26.18
2022-09-03T11:13:25.113Z,26.37
2022-09-03T11:15:54.214Z,26.37
2022-09-03T11:18:45.822Z,26.15
2022-09-03T11:21:15.522Z,26.02
2022-09-03T11:23:46.974Z,26.11
2022-09-03T11:26:18.733Z,26.18
2022-09-03T11:29:02.377Z,26.32
2022-09-03T11:31:59.247Z,25.94
2022-09-03T11:34:35.765Z,25.94
2022-09-03T11:37:22.363Z,25.78
2022-09-03T11:40:19.460Z,26.07
2022-09-03T11:42:46.667Z,26.11
2022-09-03T11:45:20.319Z,26.00
2022-09-03T11:47:47.944Z,26.01
2022-09-03T11:50:27.489Z,25.43
2022-09-03T11:53:08.549Z,25.59
2022-09-03T11:55:55.776Z,25.94
2022-09-03T11:58:43.029Z,25.97
2022-09-03T12:01:18.267Z,25.73
2022-09-03T12:03:53.137Z,25.76
2022-09-03T12:06:32.519Z,25.90
2022-09-03T12:09:13.870Z,25.77
2022-09-03T12:12:14.036Z,25.99
2022-09-03T12:14:48.090Z,25.92
2022-09-03T12:17:27.581Z,25.85
2022-09-03T12:19:58.300Z,25.79
2022-09-03T12:22:31.273Z,25.82
2022-09-03T12:25:17.221Z,25.67
2022-09-03T12:27:46.590Z,25.90
2022-09-03T12:30:21.544Z,25.80
2022-09-03T12:32:49.609Z,25.99
2022-09-03T12:38:18.501Z,26.17
2022-09-03T12:43:39.585Z,26.13
2022-09-03T12:46:14.786Z,26.37
2022-09-03T12:52:06.216Z,26.15
2022-09-03T12:54:50.463Z,26.38
2022-09-03T12:57:22.960Z,26.45
2022-09-03T12:59:54.759Z,26.33
2022-09-03T13:02:28.201Z,26.30
2022-09-03T13:04:56.293Z,26.36
2022-09-03T13:07:34.511Z,26.35
2022-09-03T13:10:08.354Z,26.37
2022-09-03T13:12:44.765Z,26.52
2022-09-03T13:15:19.972Z,26.23
2022-09-03T13:17:49.926Z,26.25
2022-09-03T13:20:40.515Z,26.18
2022-09-03T13:23:32.090Z,26.08
2022-09-03T13:26:07.043Z,26.17
2022-09-03T13:28:46.649Z,26.13
2022-09-03T13:31:34.393Z,25.98
2022-09-03T13:34:09.940Z,25.95
2022-09-03T13:36:49.335Z,25.99
2022-09-03T13:39:24.397Z,25.98
2022-09-03T13:41:55.237Z,25.95
2022-09-03T13:44:50.378Z,25.92
2022-09-03T13:47:34.434Z,25.84
2022-09-03T13:50:24.716Z,25.86
2022-09-03T13:53:00.622Z,25.67
2022-09-03T13:55:38.016Z,25.61
2022-09-03T13:58:27.678Z,25.73
2022-09-03T14:00:58.155Z,25.76
2022-09-03T14:03:36.274Z,25.82
2022-09-03T14:06:27.993Z,25.81
2022-09-03T14:09:16.937Z,25.75
2022-09-03T14:12:10.129Z,25.77
2022-09-03T14:14:38.809Z,25.73
2022-09-03T14:17:33.819Z,25.76
2022-09-03T14:20:11.157Z,25.93
2022-09-03T14:22:59.614Z,25.97
2022-09-03T14:25:28.199Z,26.12
2022-09-03T14:27:56.400Z,26.07
2022-09-03T14:30:49.601Z,26.18
2022-09-03T14:33:47.712Z,25.96
2022-09-03T14:36:42.770Z,25.93
2022-09-03T14:39:52.339Z,25.81
2022-09-03T14:42:42.854Z,25.77
2022-09-03T14:45:35.210Z,25.79
2022-09-03T14:48:44.426Z,25.78
2022-09-03T14:51:36.079Z,25.76
2022-09-03T14:54:24.860Z,25.77
2022-09-03T14:57:04.501Z,25.62
2022-09-03T14:59:47.425Z,25.61
2022-09-03T15:02:17.536Z,25.48
2022-09-03T15:04:57.345Z,25.43
2022-09-03T15:07:34.124Z,25.39
2022-09-03T15:10:36.788Z,25.21
2022-09-03T15:13:27.066Z,25.06
2022-09-03T15:16:31.695Z,24.88
2022-09-03T15:19:05.011Z,24.85
2022-09-03T15:21:53.417Z,24.79
2022-09-03T15:24:26.888Z,24.85
2022-09-03T15:27:07.825Z,24.91
2022-09-03T15:30:05.346Z,24.92
2022-09-03T15:33:09.950Z,24.87
2022-09-03T15:36:08.924Z,24.77
2022-09-03T15:38:57.210Z,24.69
2022-09-03T15:41:40.327Z,24.57
2022-09-03T15:44:19.005Z,24.49
2022-09-03T15:46:56.840Z,24.41
2022-09-03T15:49:29.661Z,24.43
2022-09-03T15:52:45.899Z,24.41
2022-09-03T15:55:30.117Z,24.44
2022-09-03T15:58:29.515Z,24.53
2022-09-03T16:01:41.750Z,24.53
2022-09-03T16:04:50.792Z,24.48
2022-09-03T16:07:42.418Z,24.46
2022-09-03T16:10:24.678Z,24.40
2022-09-03T16:13:24.552Z,24.34
2022-09-03T16:16:02.276Z,24.28
2022-09-03T16:18:58.683Z,24.21
2022-09-03T16:21:32.678Z,24.19
2022-09-03T16:24:03.173Z,24.09
2022-09-03T16:26:41.323Z,24.08
2022-09-03T16:29:13.190Z,24.00
2022-09-03T16:31:43.383Z,23.91
2022-09-03T16:34:22.780Z,23.87
2022-09-03T16:37:08.192Z,23.74
2022-09-03T16:40:13.562Z,23.70
2022-09-03T16:42:47.852Z,23.63
2022-09-03T16:45:19.890Z,23.52
2022-09-03T16:48:12.226Z,23.36
2022-09-03T16:51:07.491Z,23.35
2022-09-03T16:54:09.217Z,23.23
2022-09-03T16:56:57.907Z,23.10
2022-09-03T16:59:46.349Z,23.04
2022-09-03T17:02:54.514Z,22.99
2022-09-03T17:05:28.709Z,22.98
2022-09-03T17:08:07.664Z,22.85
2022-09-03T17:10:45.991Z,22.78
2022-09-03T17:13:57.562Z,22.70
2022-09-03T17:17:01.010Z,22.66
2022-09-03T17:19:27.948Z,22.53
2022-09-03T17:22:15.619Z,22.45
2022-09-03T17:25:01.752Z,22.37
2022-09-03T17:27:45.243Z,22.24
2022-09-03T17:30:40.746Z,22.15
2022-09-03T17:33:45.665Z,22.04
2022-09-03T17:36:48.906Z,21.96
2022-09-03T17:39:32.258Z,21.86
2022-09-03T17:42:05.100Z,21.85
2022-09-03T17:44:47.036Z,21.84
2022-09-03T17:47:41.884Z,21.85
2022-09-03T17:50:12.190Z,21.85
2022-09-03T17:52:45.091Z,21.84
2022-09-03T17:55:24.381Z,21.79
2022-09-03T17:57:59.891Z,21.76
2022-09-03T18:00:38.283Z,21.77
2022-09-03T18:03:17.501Z,21.76
2022-09-03T18:05:59.860Z,21.73
2022-09-03T18:08:36.411Z,21.69
2022-09-03T18:11:06.631Z,21.60
2022-09-03T18:13:55.588Z,21.59
2022-09-03T18:16:33.222Z,21.50
2022-09-03T18:19:19.099Z,21.41
2022-09-03T18:22:06.257Z,21.41
2022-09-03T18:25:07.987Z,21.38
2022-09-03T18:28:13.427Z,21.39
2022-09-03T18:30:59.399Z,21.41
2022-09-03T18:33:45.820Z,21.38
2022-09-03T18:36:34.113Z,21.30
2022-09-03T18:39:31.427Z,21.23
2022-09-03T18:42:54.748Z,21.20
2022-09-03T18:46:31.154Z,21.05
2022-09-03T18:48:59.534Z,20.96
2022-09-03T18:52:18.092Z,20.87
2022-09-03T18:55:29.012Z,20.81
2022-09-03T18:58:27.056Z,20.65
2022-09-03T19:01:25.248Z,20.54
2022-09-03T19:04:20.178Z,20.50
2022-09-03T19:07:26.782Z,20.48
2022-09-03T19:10:39.066Z,20.46
2022-09-03T19:13:31.248Z,20.47
2022-09-03T19:16:53.612Z,20.41
2022-09-03T19:19:45.542Z,20.38
2022-09-03T19:22:53.414Z,20.35
2022-09-03T19:25:39.830Z,20.37
2022-09-03T19:28:40.696Z,20.40
2022-09-03T19:31:29.797Z,20.45
2022-09-03T19:34:33.438Z,20.43
2022-09-03T19:37:37.595Z,20.46
2022-09-03T19:41:01.088Z,20.39
2022-09-03T19:44:25.985Z,20.37
2022-09-03T19:47:16.849Z,20.22
2022-09-03T19:50:36.565Z,20.20
2022-09-03T19:53:29.335Z,20.08
2022-09-03T19:56:17.735Z,20.07
2022-09-03T19:59:14.832Z,20.05
2022-09-03T20:02:01.119Z,19.97
2022-09-03T20:04:54.073Z,19.96
2022-09-03T20:07:43.031Z,19.88
2022-09-03T20:10:25.508Z,19.86
2022-09-03T20:13:15.445Z,19.91
2022-09-03T20:15:53.859Z,19.89
2022-09-03T20:18:27.259Z,19.90
2022-09-03T20:21:44.149Z,19.85
2022-09-03T20:24:44.362Z,19.82
2022-09-03T20:27:50.799Z,19.71
2022-09-03T20:30:22.841Z,19.74
2022-09-03T20:32:55.986Z,19.72
2022-09-03T20:35:45.261Z,19.69
2022-09-03T20:38:36.777Z,19.86
2022-09-03T20:41:12.070Z,19.82
2022-09-03T20:44:01.294Z,19.80
2022-09-03T20:46:28.380Z,19.79
2022-09-03T20:49:08.993Z,19.79
2022-09-03T20:51:54.780Z,19.89
2022-09-03T20:54:28.784Z,19.86
2022-09-03T20:57:05.825Z,19.84
2022-09-03T21:00:07.660Z,19.88
2022-09-03T21:02:56.959Z,19.88
2022-09-03T21:05:34.702Z,20.00
2022-09-03T21:08:14.019Z,20.01
2022-09-03T21:10:53.275Z,19.96
2022-09-03T21:13:39.170Z,19.89
2022-09-03T21:16:45.001Z,19.88
2022-09-03T21:19:43.699Z,19.82
2022-09-03T21:22:28.740Z,19.84
2022-09-03T21:25:07.137Z,19.77
2022-09-03T21:27:41.637Z,19.75
2022-09-03T21:30:13.194Z,19.75
2022-09-03T21:32:55.797Z,19.67
2022-09-03T21:35:29.155Z,19.61
2022-09-03T21:38:06.591Z,19.52
2022-09-03T21:40:37.773Z,19.56
2022-09-03T21:43:17.751Z,19.56
2022-09-03T21:45:50.365Z,19.53
2022-09-03T21:48:25.528Z,19.47
2022-09-03T21:51:00.373Z,19.44
2022-09-03T21:53:35.994Z,19.42
2022-09-03T21:56:16.047Z,19.43
2022-09-03T21:59:19.937Z,19.46
2022-09-03T22:02:01.945Z,19.55
2022-09-03T22:04:29.524Z,19.52
2022-09-03T22:07:07.702Z,19.51
2022-09-03T22:09:45.739Z,19.48
2022-09-03T22:12:16.785Z,19.51
2022-09-03T22:14:48.519Z,19.49
2022-09-03T22:17:48.536Z,19.48
2022-09-03T22:20:20.106Z,19.45
2022-09-03T22:22:57.804Z,19.45
2022-09-03T22:25:43.951Z,19.42
2022-09-03T22:28:22.139Z,19.39
2022-09-03T22:31:07.217Z,19.36
2022-09-03T22:33:56.230Z,19.32
2022-09-03T22:36:40.588Z,19.31
2022-09-03T22:39:31.726Z,19.29
2022-09-03T22:42:11.791Z,19.29
2022-09-03T22:44:57.290Z,19.28
2022-09-03T22:47:31.982Z,19.25
2022-09-03T22:50:35.815Z,19.23
2022-09-03T22:53:11.669Z,19.20
2022-09-03T22:55:45.638Z,19.19
2022-09-03T22:58:28.842Z,19.16
2022-09-03T23:01:10.764Z,19.16
2022-09-03T23:03:45.235Z,19.18
2022-09-03T23:06:36.508Z,19.16
2022-09-03T23:09:21.373Z,19.21
2022-09-03T23:11:54.177Z,19.29
2022-09-03T23:14:28.504Z,19.31
2022-09-03T23:17:12.428Z,19.31
2022-09-03T23:19:47.044Z,19.30
2022-09-03T23:22:35.298Z,19.29
2022-09-03T23:25:18.676Z,19.28
2022-09-03T23:27:55.486Z,19.24
2022-09-03T23:30:22.758Z,19.19
2022-09-03T23:32:55.128Z,19.15
2022-09-03T23:35:29.963Z,19.11
2022-09-03T23:38:09.154Z,19.06
2022-09-03T23:40:57.112Z,19.02
2022-09-03T23:43:27.408Z,18.97
2022-09-03T23:46:08.133Z,18.93
2022-09-03T23:49:13.015Z,18.88
2022-09-03T23:52:09.413Z,18.81
2022-09-03T23:55:22.877Z,18.73
2022-09-03T23:58:11.011Z,18.72
